sensor_id;sensor_type;location;lat;lon;timestamp;P1;durP1;ratioP1;P2;durP2;ratioP2
13793;SDS011;31160;49.500;7.772;2022-11-15T00:01:43;6.20;;;3.03;;
13793;SDS011;31160;49.500;7.772;2022-11-15T00:04:28;6.57;;;3.30;;
13793;SDS011;31160;49.500;7.772;2022-11-15T00:07:13;7.37;;;4.67;;
13793;SDS011;31160;49.500;7.772;2022-11-15T00:10:19;4.23;;;3.60;;
13793;SDS011;31160;49.500;7.772;2022-11-15T00:13:09;4.67;;;3.27;;
13793;SDS011;31160;49.500;7.772;2022-11-15T00:15:57;8.07;;;3.63;;
13793;SDS011;31160;49.500;7.772;2022-11-15T00:18:43;4.50;;;3.63;;
13793;SDS011;31160;49.500;7.772;2022-11-15T00:21:34;9.60;;;6.50;;
13793;SDS011;31160;49.500;7.772;2022-11-15T00:24:19;7.87;;;4.07;;
13793;SDS011;31160;49.500;7.772;2022-11-15T00:27:05;5.63;;;3.60;;
13793;SDS011;31160;49.500;7.772;2022-11-15T00:29:52;4.87;;;3.90;;
13793;SDS011;31160;49.500;7.772;2022-11-15T00:32:37;5.53;;;4.00;;
13793;SDS011;31160;49.500;7.772;2022-11-15T00:35:23;5.17;;;3.53;;
13793;SDS011;31160;49.500;7.772;2022-11-15T00:38:08;8.10;;;4.70;;
13793;SDS011;31160;49.500;7.772;2022-11-15T00:40:54;8.87;;;3.70;;
13793;SDS011;31160;49.500;7.772;2022-11-15T00:43:39;6.33;;;3.87;;
13793;SDS011;31160;49.500;7.772;2022-11-15T00:46:26;7.50;;;3.27;;
13793;SDS011;31160;49.500;7.772;2022-11-15T00:49:12;7.90;;;3.83;;
13793;SDS011;31160;49.500;7.772;2022-11-15T00:51:57;6.57;;;3.97;;
13793;SDS011;31160;49.500;7.772;2022-11-15T00:54:42;6.90;;;4.20;;
13793;SDS011;31160;49.500;7.772;2022-11-15T00:57:28;6.57;;;5.03;;
13793;SDS011;31160;49.500;7.772;2022-11-15T01:00:13;12.63;;;5.20;;
13793;SDS011;31160;49.500;7.772;2022-11-15T01:03:02;6.30;;;4.97;;
13793;SDS011;31160;49.500;7.772;2022-11-15T01:05:47;11.10;;;4.93;;
13793;SDS011;31160;49.500;7.772;2022-11-15T01:08:33;9.07;;;5.00;;
13793;SDS011;31160;49.500;7.772;2022-11-15T01:11:18;6.80;;;3.93;;
13793;SDS011;31160;49.500;7.772;2022-11-15T01:14:03;5.23;;;3.90;;
13793;SDS011;31160;49.500;7.772;2022-11-15T01:16:49;6.23;;;4.13;;
13793;SDS011;31160;49.500;7.772;2022-11-15T01:19:34;7.80;;;4.03;;
13793;SDS011;31160;49.500;7.772;2022-11-15T01:22:19;6.07;;;3.43;;
13793;SDS011;31160;49.500;7.772;2022-11-15T01:25:05;5.23;;;3.57;;
13793;SDS011;31160;49.500;7.772;2022-11-15T01:27:50;4.40;;;3.60;;
13793;SDS011;31160;49.500;7.772;2022-11-15T01:30:36;4.27;;;3.53;;
13793;SDS011;31160;49.500;7.772;2022-11-15T01:33:21;4.57;;;3.53;;
13793;SDS011;31160;49.500;7.772;2022-11-15T01:36:24;5.47;;;3.50;;
13793;SDS011;31160;49.500;7.772;2022-11-15T01:39:10;4.90;;;3.13;;
13793;SDS011;31160;49.500;7.772;2022-11-15T01:41:55;6.17;;;3.50;;
13793;SDS011;31160;49.500;7.772;2022-11-15T01:44:46;3.63;;;2.90;;
13793;SDS011;31160;49.500;7.772;2022-11-15T01:47:37;4.37;;;2.93;;
13793;SDS011;31160;49.500;7.772;2022-11-15T01:50:28;3.93;;;2.60;;
13793;SDS011;31160;49.500;7.772;2022-11-15T01:53:17;4.77;;;2.47;;
13793;SDS011;31160;49.500;7.772;2022-11-15T01:56:06;5.07;;;2.73;;
13793;SDS011;31160;49.500;7.772;2022-11-15T01:58:55;3.37;;;2.50;;
13793;SDS011;31160;49.500;7.772;2022-11-15T02:01:43;3.13;;;2.20;;
13793;SDS011;31160;49.500;7.772;2022-11-15T02:04:30;3.03;;;2.40;;
13793;SDS011;31160;49.500;7.772;2022-11-15T02:07:19;3.17;;;2.30;;
13793;SDS011;31160;49.500;7.772;2022-11-15T02:10:10;3.17;;;1.97;;
13793;SDS011;31160;49.500;7.772;2022-11-15T02:13:03;3.80;;;2.63;;
13793;SDS011;31160;49.500;7.772;2022-11-15T02:15:56;4.03;;;2.40;;
13793;SDS011;31160;49.500;7.772;2022-11-15T02:19:40;5.17;;;2.90;;
13793;SDS011;31160;49.500;7.772;2022-11-15T02:25:04;3.73;;;2.67;;
13793;SDS011;31160;49.500;7.772;2022-11-15T02:34:40;4.37;;;3.00;;
13793;SDS011;31160;49.500;7.772;2022-11-15T02:37:34;3.10;;;2.50;;
13793;SDS011;31160;49.500;7.772;2022-11-15T02:47:07;5.97;;;3.10;;
13793;SDS011;31160;49.500;7.772;2022-11-15T02:50:05;3.97;;;2.50;;
13793;SDS011;31160;49.500;7.772;2022-11-15T02:52:53;4.73;;;2.50;;
13793;SDS011;31160;49.500;7.772;2022-11-15T02:55:41;4.50;;;3.17;;
13793;SDS011;31160;49.500;7.772;2022-11-15T02:58:50;5.43;;;3.00;;
13793;SDS011;31160;49.500;7.772;2022-11-15T03:01:59;5.00;;;2.40;;
13793;SDS011;31160;49.500;7.772;2022-11-15T03:04:53;5.20;;;3.10;;
13793;SDS011;31160;49.500;7.772;2022-11-15T03:07:56;4.47;;;2.70;;
13793;SDS011;31160;49.500;7.772;2022-11-15T03:13:58;5.33;;;3.20;;
13793;SDS011;31160;49.500;7.772;2022-11-15T03:16:56;3.47;;;2.80;;
13793;SDS011;31160;49.500;7.772;2022-11-15T03:19:56;5.27;;;2.80;;
13793;SDS011;31160;49.500;7.772;2022-11-15T03:22:44;4.97;;;2.77;;
13793;SDS011;31160;49.500;7.772;2022-11-15T03:25:31;2.73;;;2.40;;
13793;SDS011;31160;49.500;7.772;2022-11-15T03:28:23;3.80;;;2.70;;
13793;SDS011;31160;49.500;7.772;2022-11-15T03:31:13;3.57;;;2.50;;
13793;SDS011;31160;49.500;7.772;2022-11-15T03:34:29;2.37;;;2.10;;
13793;SDS011;31160;49.500;7.772;2022-11-15T03:37:16;5.70;;;2.40;;
13793;SDS011;31160;49.500;7.772;2022-11-15T03:40:05;3.30;;;2.60;;
13793;SDS011;31160;49.500;7.772;2022-11-15T03:43:02;2.97;;;2.33;;
13793;SDS011;31160;49.500;7.772;2022-11-15T03:46:06;3.23;;;2.33;;
13793;SDS011;31160;49.500;7.772;2022-11-15T03:49:22;5.50;;;2.40;;
13793;SDS011;31160;49.500;7.772;2022-11-15T03:52:09;3.33;;;2.40;;
13793;SDS011;31160;49.500;7.772;2022-11-15T03:54:56;5.17;;;2.33;;
13793;SDS011;31160;49.500;7.772;2022-11-15T03:57:41;3.07;;;2.53;;
13793;SDS011;31160;49.500;7.772;2022-11-15T04:00:27;6.10;;;2.23;;
13793;SDS011;31160;49.500;7.772;2022-11-15T04:03:13;3.67;;;2.40;;
13793;SDS011;31160;49.500;7.772;2022-11-15T04:05:58;3.23;;;2.20;;
13793;SDS011;31160;49.500;7.772;2022-11-15T04:08:44;4.00;;;2.30;;
13793;SDS011;31160;49.500;7.772;2022-11-15T04:11:29;4.20;;;2.30;;
13793;SDS011;31160;49.500;7.772;2022-11-15T04:14:14;2.27;;;2.00;;
13793;SDS011;31160;49.500;7.772;2022-11-15T04:17:00;2.53;;;2.30;;
13793;SDS011;31160;49.500;7.772;2022-11-15T04:19:45;4.00;;;2.30;;
13793;SDS011;31160;49.500;7.772;2022-11-15T04:22:51;3.33;;;2.20;;
13793;SDS011;31160;49.500;7.772;2022-11-15T04:25:57;2.90;;;2.30;;
13793;SDS011;31160;49.500;7.772;2022-11-15T04:28:45;3.50;;;2.30;;
13793;SDS011;31160;49.500;7.772;2022-11-15T04:31:50;3.03;;;2.63;;
13793;SDS011;31160;49.500;7.772;2022-11-15T04:34:35;3.80;;;2.43;;
13793;SDS011;31160;49.500;7.772;2022-11-15T04:37:23;2.83;;;2.00;;
13793;SDS011;31160;49.500;7.772;2022-11-15T04:40:08;5.97;;;2.60;;
13793;SDS011;31160;49.500;7.772;2022-11-15T04:42:54;3.23;;;2.60;;
13793;SDS011;31160;49.500;7.772;2022-11-15T04:45:47;6.03;;;2.43;;
13793;SDS011;31160;49.500;7.772;2022-11-15T04:48:32;5.53;;;2.63;;
13793;SDS011;31160;49.500;7.772;2022-11-15T04:51:18;3.93;;;2.10;;
13793;SDS011;31160;49.500;7.772;2022-11-15T04:54:03;2.47;;;2.23;;
13793;SDS011;31160;49.500;7.772;2022-11-15T04:56:49;3.87;;;2.27;;
13793;SDS011;31160;49.500;7.772;2022-11-15T04:59:34;4.63;;;2.70;;
13793;SDS011;31160;49.500;7.772;2022-11-15T05:02:20;16.83;;;12.40;;
13793;SDS011;31160;49.500;7.772;2022-11-15T05:05:05;23.33;;;13.93;;
13793;SDS011;31160;49.500;7.772;2022-11-15T05:07:50;4.97;;;3.07;;
13793;SDS011;31160;49.500;7.772;2022-11-15T05:10:36;4.93;;;3.90;;
13793;SDS011;31160;49.500;7.772;2022-11-15T05:13:21;3.67;;;2.80;;
13793;SDS011;31160;49.500;7.772;2022-11-15T05:16:07;16.30;;;11.87;;
13793;SDS011;31160;49.500;7.772;2022-11-15T05:18:53;20.53;;;15.50;;
13793;SDS011;31160;49.500;7.772;2022-11-15T05:21:38;13.10;;;8.03;;
13793;SDS011;31160;49.500;7.772;2022-11-15T05:24:23;4.67;;;3.13;;
13793;SDS011;31160;49.500;7.772;2022-11-15T05:27:09;4.33;;;2.63;;
13793;SDS011;31160;49.500;7.772;2022-11-15T05:29:54;3.83;;;3.37;;
13793;SDS011;31160;49.500;7.772;2022-11-15T05:32:40;9.07;;;4.63;;
13793;SDS011;31160;49.500;7.772;2022-11-15T05:35:29;6.97;;;3.60;;
13793;SDS011;31160;49.500;7.772;2022-11-15T05:38:23;6.30;;;3.70;;
13793;SDS011;31160;49.500;7.772;2022-11-15T05:41:08;10.03;;;6.73;;
13793;SDS011;31160;49.500;7.772;2022-11-15T05:43:54;6.67;;;3.60;;
13793;SDS011;31160;49.500;7.772;2022-11-15T05:46:40;4.17;;;2.93;;
13793;SDS011;31160;49.500;7.772;2022-11-15T05:49:27;7.13;;;3.23;;
13793;SDS011;31160;49.500;7.772;2022-11-15T05:52:16;5.60;;;3.50;;
13793;SDS011;31160;49.500;7.772;2022-11-15T05:55:05;7.33;;;3.77;;
13793;SDS011;31160;49.500;7.772;2022-11-15T05:57:52;6.37;;;3.40;;
13793;SDS011;31160;49.500;7.772;2022-11-15T06:00:37;3.53;;;2.70;;
13793;SDS011;31160;49.500;7.772;2022-11-15T06:03:22;4.53;;;3.00;;
13793;SDS011;31160;49.500;7.772;2022-11-15T06:06:08;3.57;;;2.70;;
13793;SDS011;31160;49.500;7.772;2022-11-15T06:09:00;4.63;;;3.37;;
13793;SDS011;31160;49.500;7.772;2022-11-15T06:11:45;5.67;;;3.20;;
13793;SDS011;31160;49.500;7.772;2022-11-15T06:14:31;6.53;;;3.23;;
13793;SDS011;31160;49.500;7.772;2022-11-15T06:17:16;6.87;;;2.90;;
13793;SDS011;31160;49.500;7.772;2022-11-15T06:20:02;3.87;;;3.33;;
13793;SDS011;31160;49.500;7.772;2022-11-15T06:22:48;4.90;;;3.20;;
13793;SDS011;31160;49.500;7.772;2022-11-15T06:25:33;4.03;;;2.97;;
13793;SDS011;31160;49.500;7.772;2022-11-15T06:28:18;3.50;;;3.20;;
13793;SDS011;31160;49.500;7.772;2022-11-15T06:31:05;6.53;;;4.00;;
13793;SDS011;31160;49.500;7.772;2022-11-15T06:33:52;6.97;;;4.33;;
13793;SDS011;31160;49.500;7.772;2022-11-15T06:36:38;12.93;;;5.33;;
13793;SDS011;31160;49.500;7.772;2022-11-15T06:39:23;10.77;;;4.97;;
13793;SDS011;31160;49.500;7.772;2022-11-15T06:42:09;7.27;;;3.90;;
13793;SDS011;31160;49.500;7.772;2022-11-15T06:44:54;7.50;;;4.63;;
13793;SDS011;31160;49.500;7.772;2022-11-15T06:47:46;5.47;;;3.87;;
13793;SDS011;31160;49.500;7.772;2022-11-15T06:50:32;6.80;;;4.17;;
13793;SDS011;31160;49.500;7.772;2022-11-15T06:53:17;6.27;;;4.40;;
13793;SDS011;31160;49.500;7.772;2022-11-15T06:56:03;6.43;;;4.50;;
13793;SDS011;31160;49.500;7.772;2022-11-15T06:58:50;15.10;;;11.40;;
13793;SDS011;31160;49.500;7.772;2022-11-15T07:01:36;9.83;;;5.70;;
13793;SDS011;31160;49.500;7.772;2022-11-15T07:04:21;7.90;;;4.57;;
13793;SDS011;31160;49.500;7.772;2022-11-15T07:07:07;7.03;;;4.50;;
13793;SDS011;31160;49.500;7.772;2022-11-15T07:09:52;8.77;;;5.60;;
13793;SDS011;31160;49.500;7.772;2022-11-15T07:12:37;6.67;;;4.07;;
13793;SDS011;31160;49.500;7.772;2022-11-15T07:15:24;6.77;;;3.97;;
13793;SDS011;31160;49.500;7.772;2022-11-15T07:18:10;5.33;;;3.33;;
13793;SDS011;31160;49.500;7.772;2022-11-15T07:20:59;8.80;;;4.40;;
13793;SDS011;31160;49.500;7.772;2022-11-15T07:23:45;8.80;;;4.83;;
13793;SDS011;31160;49.500;7.772;2022-11-15T07:26:30;10.80;;;5.03;;
13793;SDS011;31160;49.500;7.772;2022-11-15T07:29:16;11.67;;;4.93;;
13793;SDS011;31160;49.500;7.772;2022-11-15T07:32:02;6.10;;;5.13;;
13793;SDS011;31160;49.500;7.772;2022-11-15T07:34:47;7.83;;;4.83;;
13793;SDS011;31160;49.500;7.772;2022-11-15T07:37:32;8.33;;;5.17;;
13793;SDS011;31160;49.500;7.772;2022-11-15T07:40:18;8.00;;;4.90;;
13793;SDS011;31160;49.500;7.772;2022-11-15T07:43:04;7.57;;;4.93;;
13793;SDS011;31160;49.500;7.772;2022-11-15T07:45:51;7.03;;;5.00;;
13793;SDS011;31160;49.500;7.772;2022-11-15T07:48:42;8.77;;;5.70;;
13793;SDS011;31160;49.500;7.772;2022-11-15T07:51:29;8.60;;;5.90;;
13793;SDS011;31160;49.500;7.772;2022-11-15T07:54:15;8.53;;;6.30;;
13793;SDS011;31160;49.500;7.772;2022-11-15T07:57:00;9.20;;;6.40;;
13793;SDS011;31160;49.500;7.772;2022-11-15T07:59:51;10.00;;;5.60;;
13793;SDS011;31160;49.500;7.772;2022-11-15T08:02:36;10.93;;;7.00;;
13793;SDS011;31160;49.500;7.772;2022-11-15T08:05:21;12.13;;;7.03;;
13793;SDS011;31160;49.500;7.772;2022-11-15T08:08:08;9.67;;;7.47;;
13793;SDS011;31160;49.500;7.772;2022-11-15T08:10:54;10.23;;;6.00;;
13793;SDS011;31160;49.500;7.772;2022-11-15T08:13:41;7.00;;;5.27;;
13793;SDS011;31160;49.500;7.772;2022-11-15T08:16:27;7.17;;;4.67;;
13793;SDS011;31160;49.500;7.772;2022-11-15T08:19:12;6.13;;;4.80;;
13793;SDS011;31160;49.500;7.772;2022-11-15T08:21:57;6.47;;;4.57;;
13793;SDS011;31160;49.500;7.772;2022-11-15T08:24:43;7.40;;;5.10;;
13793;SDS011;31160;49.500;7.772;2022-11-15T08:27:28;11.70;;;5.70;;
13793;SDS011;31160;49.500;7.772;2022-11-15T08:30:14;10.10;;;5.37;;
13793;SDS011;31160;49.500;7.772;2022-11-15T08:33:00;9.10;;;4.10;;
13793;SDS011;31160;49.500;7.772;2022-11-15T08:35:46;12.73;;;4.20;;
13793;SDS011;31160;49.500;7.772;2022-11-15T08:38:31;5.07;;;3.87;;
13793;SDS011;31160;49.500;7.772;2022-11-15T08:41:28;5.57;;;3.67;;
13793;SDS011;31160;49.500;7.772;2022-11-15T08:44:15;16.30;;;10.93;;
13793;SDS011;31160;49.500;7.772;2022-11-15T08:47:01;45.93;;;29.30;;
13793;SDS011;31160;49.500;7.772;2022-11-15T08:49:46;10.53;;;7.03;;
13793;SDS011;31160;49.500;7.772;2022-11-15T08:52:31;8.90;;;5.50;;
13793;SDS011;31160;49.500;7.772;2022-11-15T08:55:17;9.47;;;6.10;;
13793;SDS011;31160;49.500;7.772;2022-11-15T08:58:02;8.60;;;5.87;;
13793;SDS011;31160;49.500;7.772;2022-11-15T09:00:47;8.70;;;5.77;;
13793;SDS011;31160;49.500;7.772;2022-11-15T09:03:33;9.03;;;6.00;;
13793;SDS011;31160;49.500;7.772;2022-11-15T09:06:18;11.30;;;4.93;;
13793;SDS011;31160;49.500;7.772;2022-11-15T09:09:04;9.40;;;5.73;;
13793;SDS011;31160;49.500;7.772;2022-11-15T09:11:49;7.00;;;5.30;;
13793;SDS011;31160;49.500;7.772;2022-11-15T09:14:35;7.13;;;5.13;;
13793;SDS011;31160;49.500;7.772;2022-11-15T09:17:20;8.27;;;4.90;;
13793;SDS011;31160;49.500;7.772;2022-11-15T09:20:09;9.70;;;5.30;;
13793;SDS011;31160;49.500;7.772;2022-11-15T09:22:54;6.50;;;4.37;;
13793;SDS011;31160;49.500;7.772;2022-11-15T09:25:44;6.50;;;4.17;;
13793;SDS011;31160;49.500;7.772;2022-11-15T09:28:29;6.37;;;4.43;;
13793;SDS011;31160;49.500;7.772;2022-11-15T09:31:16;7.90;;;4.30;;
13793;SDS011;31160;49.500;7.772;2022-11-15T09:34:05;4.93;;;3.00;;
13793;SDS011;31160;49.500;7.772;2022-11-15T09:36:51;5.60;;;2.50;;
13793;SDS011;31160;49.500;7.772;2022-11-15T09:39:36;4.03;;;2.40;;
13793;SDS011;31160;49.500;7.772;2022-11-15T09:42:26;2.80;;;2.57;;
13793;SDS011;31160;49.500;7.772;2022-11-15T09:45:50;2.47;;;2.03;;
13793;SDS011;31160;49.500;7.772;2022-11-15T09:48:57;2.50;;;2.00;;
13793;SDS011;31160;49.500;7.772;2022-11-15T09:51:30;5.93;;;2.20;;
13793;SDS011;31160;49.500;7.772;2022-11-15T09:54:05;2.17;;;1.60;;
13793;SDS011;31160;49.500;7.772;2022-11-15T09:57:03;2.60;;;1.60;;
13793;SDS011;31160;49.500;7.772;2022-11-15T10:05:07;3.53;;;1.83;;
13793;SDS011;31160;49.500;7.772;2022-11-15T10:07:40;2.27;;;1.63;;
13793;SDS011;31160;49.500;7.772;2022-11-15T10:10:23;3.87;;;2.30;;
13793;SDS011;31160;49.500;7.772;2022-11-15T10:13:02;3.57;;;2.60;;
13793;SDS011;31160;49.500;7.772;2022-11-15T10:15:30;2.93;;;1.77;;
13793;SDS011;31160;49.500;7.772;2022-11-15T10:20:49;3.60;;;2.20;;
13793;SDS011;31160;49.500;7.772;2022-11-15T10:23:19;3.70;;;1.90;;
13793;SDS011;31160;49.500;7.772;2022-11-15T10:25:50;5.03;;;2.27;;
13793;SDS011;31160;49.500;7.772;2022-11-15T10:30:54;4.40;;;2.47;;
13793;SDS011;31160;49.500;7.772;2022-11-15T10:33:35;2.97;;;1.60;;
13793;SDS011;31160;49.500;7.772;2022-11-15T10:41:17;2.90;;;1.40;;
13793;SDS011;31160;49.500;7.772;2022-11-15T10:49:22;2.73;;;1.63;;
13793;SDS011;31160;49.500;7.772;2022-11-15T10:51:57;1.90;;;1.30;;
13793;SDS011;31160;49.500;7.772;2022-11-15T10:56:56;2.27;;;1.53;;
13793;SDS011;31160;49.500;7.772;2022-11-15T10:59:26;1.67;;;1.17;;
13793;SDS011;31160;49.500;7.772;2022-11-15T11:02:23;1.83;;;1.40;;
13793;SDS011;31160;49.500;7.772;2022-11-15T11:04:53;6.17;;;1.80;;
13793;SDS011;31160;49.500;7.772;2022-11-15T11:07:27;4.47;;;1.97;;
13793;SDS011;31160;49.500;7.772;2022-11-15T11:10:00;2.93;;;1.40;;
13793;SDS011;31160;49.500;7.772;2022-11-15T11:13:12;2.73;;;1.10;;
13793;SDS011;31160;49.500;7.772;2022-11-15T11:15:59;3.20;;;1.10;;
13793;SDS011;31160;49.500;7.772;2022-11-15T11:21:24;2.87;;;1.60;;
13793;SDS011;31160;49.500;7.772;2022-11-15T11:24:14;3.73;;;1.07;;
13793;SDS011;31160;49.500;7.772;2022-11-15T11:30:06;3.67;;;1.30;;
13793;SDS011;31160;49.500;7.772;2022-11-15T11:32:40;3.80;;;1.47;;
13793;SDS011;31160;49.500;7.772;2022-11-15T11:35:37;1.50;;;1.13;;
13793;SDS011;31160;49.500;7.772;2022-11-15T11:49:17;2.00;;;1.07;;
13793;SDS011;31160;49.500;7.772;2022-11-15T11:52:03;0.97;;;0.73;;
13793;SDS011;31160;49.500;7.772;2022-11-15T11:54:57;0.80;;;0.53;;
13793;SDS011;31160;49.500;7.772;2022-11-15T11:57:49;1.00;;;0.60;;
13793;SDS011;31160;49.500;7.772;2022-11-15T12:00:22;2.20;;;0.80;;
13793;SDS011;31160;49.500;7.772;2022-11-15T12:05:57;0.77;;;0.57;;
13793;SDS011;31160;49.500;7.772;2022-11-15T12:08:33;0.87;;;0.50;;
13793;SDS011;31160;49.500;7.772;2022-11-15T12:13:43;1.73;;;0.70;;
13793;SDS011;31160;49.500;7.772;2022-11-15T12:16:13;1.83;;;0.80;;
13793;SDS011;31160;49.500;7.772;2022-11-15T12:18:44;1.70;;;0.63;;
13793;SDS011;31160;49.500;7.772;2022-11-15T12:26:52;1.50;;;0.80;;
13793;SDS011;31160;49.500;7.772;2022-11-15T12:29:47;1.30;;;0.53;;
13793;SDS011;31160;49.500;7.772;2022-11-15T12:32:39;2.57;;;1.23;;
13793;SDS011;31160;49.500;7.772;2022-11-15T12:35:25;2.77;;;1.43;;
13793;SDS011;31160;49.500;7.772;2022-11-15T12:37:56;3.23;;;0.80;;
13793;SDS011;31160;49.500;7.772;2022-11-15T12:40:29;8.80;;;4.17;;
13793;SDS011;31160;49.500;7.772;2022-11-15T12:43:01;1.97;;;0.87;;
13793;SDS011;31160;49.500;7.772;2022-11-15T13:06:51;0.60;;;0.50;;
13793;SDS011;31160;49.500;7.772;2022-11-15T13:12:02;2.10;;;0.83;;
13793;SDS011;31160;49.500;7.772;2022-11-15T13:17:31;2.47;;;0.50;;
13793;SDS011;31160;49.500;7.772;2022-11-15T13:25:27;0.60;;;0.60;;
13793;SDS011;31160;49.500;7.772;2022-11-15T13:28:03;3.57;;;1.33;;
13793;SDS011;31160;49.500;7.772;2022-11-15T13:30:36;1.10;;;0.63;;
13793;SDS011;31160;49.500;7.772;2022-11-15T13:33:13;2.80;;;0.87;;
13793;SDS011;31160;49.500;7.772;2022-11-15T13:35:58;0.63;;;0.40;;
13793;SDS011;31160;49.500;7.772;2022-11-15T13:38:42;2.00;;;1.10;;
13793;SDS011;31160;49.500;7.772;2022-11-15T13:41:11;1.03;;;0.83;;
13793;SDS011;31160;49.500;7.772;2022-11-15T13:43:49;1.43;;;0.53;;
13793;SDS011;31160;49.500;7.772;2022-11-15T13:46:32;0.80;;;0.40;;
13793;SDS011;31160;49.500;7.772;2022-11-15T13:49:04;0.83;;;0.40;;
13793;SDS011;31160;49.500;7.772;2022-11-15T13:59:59;0.60;;;0.30;;
13793;SDS011;31160;49.500;7.772;2022-11-15T14:02:36;0.50;;;0.40;;
13793;SDS011;31160;49.500;7.772;2022-11-15T14:05:19;1.03;;;0.70;;
13793;SDS011;31160;49.500;7.772;2022-11-15T14:07:54;2.03;;;0.70;;
13793;SDS011;31160;49.500;7.772;2022-11-15T14:10:33;1.50;;;1.20;;
13793;SDS011;31160;49.500;7.772;2022-11-15T14:13:02;0.97;;;0.57;;
13793;SDS011;31160;49.500;7.772;2022-11-15T14:17:58;1.60;;;0.73;;
13793;SDS011;31160;49.500;7.772;2022-11-15T14:23:02;1.37;;;0.67;;
13793;SDS011;31160;49.500;7.772;2022-11-15T14:25:31;2.23;;;0.87;;
13793;SDS011;31160;49.500;7.772;2022-11-15T14:28:09;4.57;;;1.30;;
13793;SDS011;31160;49.500;7.772;2022-11-15T14:30:45;1.73;;;0.70;;
13793;SDS011;31160;49.500;7.772;2022-11-15T14:33:32;1.10;;;0.60;;
13793;SDS011;31160;49.500;7.772;2022-11-15T14:36:13;0.40;;;0.40;;
13793;SDS011;31160;49.500;7.772;2022-11-15T14:38:42;2.37;;;0.50;;
13793;SDS011;31160;49.500;7.772;2022-11-15T14:41:19;1.23;;;0.73;;
13793;SDS011;31160;49.500;7.772;2022-11-15T14:43:49;1.23;;;0.70;;
13793;SDS011;31160;49.500;7.772;2022-11-15T14:46:17;1.43;;;0.50;;
13793;SDS011;31160;49.500;7.772;2022-11-15T14:48:44;1.40;;;1.00;;
13793;SDS011;31160;49.500;7.772;2022-11-15T14:51:11;1.10;;;0.70;;
13793;SDS011;31160;49.500;7.772;2022-11-15T14:53:41;2.77;;;1.40;;
13793;SDS011;31160;49.500;7.772;2022-11-15T14:56:08;1.00;;;0.50;;
13793;SDS011;31160;49.500;7.772;2022-11-15T14:58:36;1.27;;;0.60;;
13793;SDS011;31160;49.500;7.772;2022-11-15T15:01:09;0.93;;;0.50;;
13793;SDS011;31160;49.500;7.772;2022-11-15T15:03:39;0.80;;;0.60;;
13793;SDS011;31160;49.500;7.772;2022-11-15T15:06:06;1.63;;;0.90;;
13793;SDS011;31160;49.500;7.772;2022-11-15T15:08:42;1.10;;;0.60;;
13793;SDS011;31160;49.500;7.772;2022-11-15T15:11:10;0.93;;;0.63;;
13793;SDS011;31160;49.500;7.772;2022-11-15T15:13:42;0.70;;;0.50;;
13793;SDS011;31160;49.500;7.772;2022-11-15T15:16:09;0.60;;;0.40;;
13793;SDS011;31160;49.500;7.772;2022-11-15T15:18:36;2.47;;;1.40;;
13793;SDS011;31160;49.500;7.772;2022-11-15T15:21:04;3.57;;;1.30;;
13793;SDS011;31160;49.500;7.772;2022-11-15T15:23:48;1.57;;;0.67;;
13793;SDS011;31160;49.500;7.772;2022-11-15T15:26:15;0.60;;;0.57;;
13793;SDS011;31160;49.500;7.772;2022-11-15T15:28:42;0.93;;;0.60;;
13793;SDS011;31160;49.500;7.772;2022-11-15T15:31:09;0.97;;;0.50;;
13793;SDS011;31160;49.500;7.772;2022-11-15T15:33:36;1.33;;;0.43;;
13793;SDS011;31160;49.500;7.772;2022-11-15T15:36:03;2.87;;;1.73;;
13793;SDS011;31160;49.500;7.772;2022-11-15T15:38:30;1.43;;;0.53;;
13793;SDS011;31160;49.500;7.772;2022-11-15T15:40:57;1.27;;;0.50;;
13793;SDS011;31160;49.500;7.772;2022-11-15T15:43:25;1.23;;;0.77;;
13793;SDS011;31160;49.500;7.772;2022-11-15T15:45:52;0.93;;;0.60;;
13793;SDS011;31160;49.500;7.772;2022-11-15T15:48:19;2.00;;;1.27;;
13793;SDS011;31160;49.500;7.772;2022-11-15T15:50:45;1.90;;;1.20;;
13793;SDS011;31160;49.500;7.772;2022-11-15T15:53:13;0.80;;;0.63;;
13793;SDS011;31160;49.500;7.772;2022-11-15T15:55:40;1.67;;;0.90;;
13793;SDS011;31160;49.500;7.772;2022-11-15T15:58:06;5.80;;;3.70;;
13793;SDS011;31160;49.500;7.772;2022-11-15T16:00:34;1.00;;;0.87;;
13793;SDS011;31160;49.500;7.772;2022-11-15T16:03:01;1.20;;;0.83;;
13793;SDS011;31160;49.500;7.772;2022-11-15T16:05:28;1.20;;;0.73;;
13793;SDS011;31160;49.500;7.772;2022-11-15T16:07:55;0.93;;;0.67;;
13793;SDS011;31160;49.500;7.772;2022-11-15T16:10:26;6.97;;;4.53;;
13793;SDS011;31160;49.500;7.772;2022-11-15T16:12:54;3.38;;;2.30;;
13793;SDS011;31160;49.500;7.772;2022-11-15T16:15:23;4.30;;;1.83;;
13793;SDS011;31160;49.500;7.772;2022-11-15T16:17:52;1.00;;;0.90;;
13793;SDS011;31160;49.500;7.772;2022-11-15T16:22:50;4.10;;;2.37;;
13793;SDS011;31160;49.500;7.772;2022-11-15T16:25:17;2.30;;;1.00;;
13793;SDS011;31160;49.500;7.772;2022-11-15T16:27:43;1.80;;;1.23;;
13793;SDS011;31160;49.500;7.772;2022-11-15T16:30:14;1.90;;;1.63;;
13793;SDS011;31160;49.500;7.772;2022-11-15T16:32:43;1.50;;;1.40;;
13793;SDS011;31160;49.500;7.772;2022-11-15T16:35:13;1.03;;;0.90;;
13793;SDS011;31160;49.500;7.772;2022-11-15T16:37:41;1.00;;;0.57;;
13793;SDS011;31160;49.500;7.772;2022-11-15T16:40:22;0.80;;;0.70;;
13793;SDS011;31160;49.500;7.772;2022-11-15T16:42:56;2.80;;;0.60;;
13793;SDS011;31160;49.500;7.772;2022-11-15T16:45:23;0.97;;;0.87;;
13793;SDS011;31160;49.500;7.772;2022-11-15T16:47:50;3.03;;;1.07;;
13793;SDS011;31160;49.500;7.772;2022-11-15T16:50:20;1.60;;;1.00;;
13793;SDS011;31160;49.500;7.772;2022-11-15T16:52:56;1.90;;;1.40;;
13793;SDS011;31160;49.500;7.772;2022-11-15T16:55:24;3.13;;;2.07;;
13793;SDS011;31160;49.500;7.772;2022-11-15T16:57:53;13.33;;;6.93;;
13793;SDS011;31160;49.500;7.772;2022-11-15T17:00:21;7.03;;;2.83;;
13793;SDS011;31160;49.500;7.772;2022-11-15T17:02:48;2.90;;;2.60;;
13793;SDS011;31160;49.500;7.772;2022-11-15T17:05:16;14.70;;;7.20;;
13793;SDS011;31160;49.500;7.772;2022-11-15T17:07:46;30.20;;;18.20;;
13793;SDS011;31160;49.500;7.772;2022-11-15T17:10:23;45.77;;;28.90;;
13793;SDS011;31160;49.500;7.772;2022-11-15T17:12:51;8.37;;;5.43;;
13793;SDS011;31160;49.500;7.772;2022-11-15T17:15:20;4.10;;;1.70;;
13793;SDS011;31160;49.500;7.772;2022-11-15T17:17:53;5.13;;;1.73;;
13793;SDS011;31160;49.500;7.772;2022-11-15T17:20:21;3.17;;;1.87;;
13793;SDS011;31160;49.500;7.772;2022-11-15T17:22:49;3.50;;;1.80;;
13793;SDS011;31160;49.500;7.772;2022-11-15T17:25:17;14.57;;;10.63;;
13793;SDS011;31160;49.500;7.772;2022-11-15T17:27:45;10.90;;;8.63;;
13793;SDS011;31160;49.500;7.772;2022-11-15T17:30:12;9.37;;;3.53;;
13793;SDS011;31160;49.500;7.772;2022-11-15T17:32:41;2.50;;;1.97;;
13793;SDS011;31160;49.500;7.772;2022-11-15T17:35:08;3.90;;;1.00;;
13793;SDS011;31160;49.500;7.772;2022-11-15T17:37:41;2.40;;;1.40;;
13793;SDS011;31160;49.500;7.772;2022-11-15T17:40:08;13.13;;;1.50;;
13793;SDS011;31160;49.500;7.772;2022-11-15T17:42:35;5.50;;;1.40;;
13793;SDS011;31160;49.500;7.772;2022-11-15T17:45:02;4.90;;;1.80;;
13793;SDS011;31160;49.500;7.772;2022-11-15T17:47:35;5.97;;;1.40;;
13793;SDS011;31160;49.500;7.772;2022-11-15T17:50:02;1.53;;;1.43;;
13793;SDS011;31160;49.500;7.772;2022-11-15T17:52:29;2.60;;;1.80;;
13793;SDS011;31160;49.500;7.772;2022-11-15T17:54:55;6.60;;;2.53;;
13793;SDS011;31160;49.500;7.772;2022-11-15T17:57:22;8.47;;;2.50;;
13793;SDS011;31160;49.500;7.772;2022-11-15T17:59:49;13.17;;;4.87;;
13793;SDS011;31160;49.500;7.772;2022-11-15T18:02:15;12.90;;;3.93;;
13793;SDS011;31160;49.500;7.772;2022-11-15T18:04:42;11.43;;;3.57;;
13793;SDS011;31160;49.500;7.772;2022-11-15T18:07:09;5.50;;;2.60;;
13793;SDS011;31160;49.500;7.772;2022-11-15T18:09:37;9.43;;;2.17;;
13793;SDS011;31160;49.500;7.772;2022-11-15T18:12:07;5.37;;;1.90;;